sensor_id;sensor_type;location;lat;lon;timestamp;temperature;humidity
69731;SHT31;56996;48.138;11.538;2023-08-08T00:01:10;13.42;64.65
69731;SHT31;56996;48.138;11.538;2023-08-08T00:03:37;13.41;64.61
69731;SHT31;56996;48.138;11.538;2023-08-08T00:06:03;13.44;64.46
69731;SHT31;56996;48.138;11.538;2023-08-08T00:08:30;13.47;64.38
69731;SHT31;56996;48.138;11.538;2023-08-08T00:10:57;13.52;64.20
69731;SHT31;56996;48.138;11.538;2023-08-08T00:13:23;13.50;64.14
69731;SHT31;56996;48.138;11.538;2023-08-08T00:15:50;13.52;64.16
69731;SHT31;56996;48.138;11.538;2023-08-08T00:18:17;13.51;64.00
69731;SHT31;56996;48.138;11.538;2023-08-08T00:20:43;13.52;64.08
69731;SHT31;56996;48.138;11.538;2023-08-08T00:23:10;13.53;64.06
69731;SHT31;56996;48.138;11.538;2023-08-08T00:25:37;13.55;64.00
69731;SHT31;56996;48.138;11.538;2023-08-08T00:28:03;13.60;63.91
69731;SHT31;56996;48.138;11.538;2023-08-08T00:30:30;13.62;63.79
69731;SHT31;56996;48.138;11.538;2023-08-08T00:32:57;13.63;63.63
69731;SHT31;56996;48.138;11.538;2023-08-08T00:35:23;13.65;63.63
69731;SHT31;56996;48.138;11.538;2023-08-08T00:37:50;13.66;63.57
69731;SHT31;56996;48.138;11.538;2023-08-08T00:40:17;13.69;63.53
69731;SHT31;56996;48.138;11.538;2023-08-08T00:42:44;13.69;63.48
69731;SHT31;56996;48.138;11.538;2023-08-08T00:45:10;13.71;63.48
69731;SHT31;56996;48.138;11.538;2023-08-08T00:47:37;13.74;63.38
69731;SHT31;56996;48.138;11.538;2023-08-08T00:50:04;13.77;63.37
69731;SHT31;56996;48.138;11.538;2023-08-08T00:52:32;13.81;63.22
69731;SHT31;56996;48.138;11.538;2023-08-08T00:55:00;13.84;63.11
69731;SHT31;56996;48.138;11.538;2023-08-08T00:57:28;13.84;63.11
69731;SHT31;56996;48.138;11.538;2023-08-08T00:59:54;13.84;63.03
69731;SHT31;56996;48.138;11.538;2023-08-08T01:02:21;13.85;63.04
69731;SHT31;56996;48.138;11.538;2023-08-08T01:04:48;13.84;62.88
69731;SHT31;56996;48.138;11.538;2023-08-08T01:10:17;13.83;62.93
69731;SHT31;56996;48.138;11.538;2023-08-08T01:12:53;13.82;62.91
69731;SHT31;56996;48.138;11.538;2023-08-08T01:15:31;13.80;62.86
69731;SHT31;56996;48.138;11.538;2023-08-08T01:18:06;13.80;62.94
69731;SHT31;56996;48.138;11.538;2023-08-08T01:20:35;13.80;62.95
69731;SHT31;56996;48.138;11.538;2023-08-08T01:23:24;13.84;63.01
69731;SHT31;56996;48.138;11.538;2023-08-08T01:26:00;13.85;62.95
69731;SHT31;56996;48.138;11.538;2023-08-08T01:28:27;13.85;62.94
69731;SHT31;56996;48.138;11.538;2023-08-08T01:30:54;13.84;62.95
69731;SHT31;56996;48.138;11.538;2023-08-08T01:33:21;13.80;63.02
69731;SHT31;56996;48.138;11.538;2023-08-08T01:35:50;13.78;63.18
69731;SHT31;56996;48.138;11.538;2023-08-08T01:38:32;13.77;63.20
69731;SHT31;56996;48.138;11.538;2023-08-08T01:41:11;13.74;63.27
69731;SHT31;56996;48.138;11.538;2023-08-08T01:43:40;13.74;63.27
69731;SHT31;56996;48.138;11.538;2023-08-08T01:46:07;13.72;63.22
69731;SHT31;56996;48.138;11.538;2023-08-08T01:48:35;13.69;63.30
69731;SHT31;56996;48.138;11.538;2023-08-08T01:51:02;13.68;63.28
69731;SHT31;56996;48.138;11.538;2023-08-08T01:53:29;13.64;63.36
69731;SHT31;56996;48.138;11.538;2023-08-08T01:55:56;13.60;63.44
69731;SHT31;56996;48.138;11.538;2023-08-08T01:58:22;13.56;63.56
69731;SHT31;56996;48.138;11.538;2023-08-08T02:00:49;13.53;63.63
69731;SHT31;56996;48.138;11.538;2023-08-08T02:03:16;13.50;63.69
69731;SHT31;56996;48.138;11.538;2023-08-08T02:05:43;13.47;63.77
69731;SHT31;56996;48.138;11.538;2023-08-08T02:08:10;13.43;63.67
69731;SHT31;56996;48.138;11.538;2023-08-08T02:10:36;13.39;63.71
69731;SHT31;56996;48.138;11.538;2023-08-08T02:13:03;13.37;63.77
69731;SHT31;56996;48.138;11.538;2023-08-08T02:15:30;13.36;63.78
69731;SHT31;56996;48.138;11.538;2023-08-08T02:17:57;13.33;63.77
69731;SHT31;56996;48.138;11.538;2023-08-08T02:20:26;13.30;63.95
69731;SHT31;56996;48.138;11.538;2023-08-08T02:22:53;13.24;64.12
69731;SHT31;56996;48.138;11.538;2023-08-08T02:25:19;13.21;64.26
69731;SHT31;56996;48.138;11.538;2023-08-08T02:27:46;13.16;64.27
69731;SHT31;56996;48.138;11.538;2023-08-08T02:30:13;13.11;64.28
69731;SHT31;56996;48.138;11.538;2023-08-08T02:32:40;13.08;64.41
69731;SHT31;56996;48.138;11.538;2023-08-08T02:35:07;13.05;64.48
69731;SHT31;56996;48.138;11.538;2023-08-08T02:37:34;13.05;64.54
69731;SHT31;56996;48.138;11.538;2023-08-08T02:40:01;13.03;64.47
69731;SHT31;56996;48.138;11.538;2023-08-08T02:42:29;13.00;64.54
69731;SHT31;56996;48.138;11.538;2023-08-08T02:44:56;12.95;64.50
69731;SHT31;56996;48.138;11.538;2023-08-08T02:47:23;12.94;64.57
69731;SHT31;56996;48.138;11.538;2023-08-08T02:49:51;12.94;64.62
69731;SHT31;56996;48.138;11.538;2023-08-08T02:52:18;12.93;64.60
69731;SHT31;56996;48.138;11.538;2023-08-08T02:54:44;12.91;64.48
69731;SHT31;56996;48.138;11.538;2023-08-08T02:57:11;12.90;64.41
69731;SHT31;56996;48.138;11.538;2023-08-08T02:59:38;12.88;64.43
69731;SHT31;56996;48.138;11.538;2023-08-08T03:02:06;12.88;64.32
69731;SHT31;56996;48.138;11.538;2023-08-08T03:04:33;12.88;64.46
69731;SHT31;56996;48.138;11.538;2023-08-08T03:07:01;12.85;64.35
69731;SHT31;56996;48.138;11.538;2023-08-08T03:09:31;12.80;64.32
69731;SHT31;56996;48.138;11.538;2023-08-08T03:11:58;12.77;64.37
69731;SHT31;56996;48.138;11.538;2023-08-08T03:14:25;12.76;64.38
69731;SHT31;56996;48.138;11.538;2023-08-08T03:16:52;12.77;64.31
69731;SHT31;56996;48.138;11.538;2023-08-08T03:19:19;12.78;64.43
69731;SHT31;56996;48.138;11.538;2023-08-08T03:21:46;12.81;64.38
69731;SHT31;56996;48.138;11.538;2023-08-08T03:24:12;12.84;64.26
69731;SHT31;56996;48.138;11.538;2023-08-08T03:26:39;12.89;64.17
69731;SHT31;56996;48.138;11.538;2023-08-08T03:29:06;12.92;64.10
69731;SHT31;56996;48.138;11.538;2023-08-08T03:31:39;12.94;64.04
69731;SHT31;56996;48.138;11.538;2023-08-08T03:34:06;13.00;63.96
69731;SHT31;56996;48.138;11.538;2023-08-08T03:36:33;13.04;63.79
69731;SHT31;56996;48.138;11.538;2023-08-08T03:38:59;13.07;63.73
69731;SHT31;56996;48.138;11.538;2023-08-08T03:41:26;13.10;63.54
69731;SHT31;56996;48.138;11.538;2023-08-08T03:43:54;13.11;63.60
69731;SHT31;56996;48.138;11.538;2023-08-08T03:46:23;13.16;63.44
69731;SHT31;56996;48.138;11.538;2023-08-08T03:48:50;13.19;63.38
69731;SHT31;56996;48.138;11.538;2023-08-08T03:51:20;13.20;63.39
69731;SHT31;56996;48.138;11.538;2023-08-08T03:53:47;13.23;63.42
69731;SHT31;56996;48.138;11.538;2023-08-08T03:56:14;13.24;63.28
69731;SHT31;56996;48.138;11.538;2023-08-08T03:58:41;13.26;63.30
69731;SHT31;56996;48.138;11.538;2023-08-08T04:01:08;13.31;63.25
69731;SHT31;56996;48.138;11.538;2023-08-08T04:03:35;13.32;63.19
69731;SHT31;56996;48.138;11.538;2023-08-08T04:06:03;13.31;63.28
69731;SHT31;56996;48.138;11.538;2023-08-08T04:08:31;13.34;63.26
69731;SHT31;56996;48.138;11.538;2023-08-08T04:10:58;13.36;63.14
69731;SHT31;56996;48.138;11.538;2023-08-08T04:13:25;13.37;63.12
69731;SHT31;56996;48.138;11.538;2023-08-08T04:15:52;13.39;63.18
69731;SHT31;56996;48.138;11.538;2023-08-08T04:18:18;13.40;63.17
69731;SHT31;56996;48.138;11.538;2023-08-08T04:20:45;13.42;63.27
69731;SHT31;56996;48.138;11.538;2023-08-08T04:23:13;13.45;63.27
69731;SHT31;56996;48.138;11.538;2023-08-08T04:25:40;13.47;63.34
69731;SHT31;56996;48.138;11.538;2023-08-08T04:28:07;13.49;63.39
69731;SHT31;56996;48.138;11.538;2023-08-08T04:30:33;13.51;63.38
69731;SHT31;56996;48.138;11.538;2023-08-08T04:33:01;13.53;63.43
69731;SHT31;56996;48.138;11.538;2023-08-08T04:35:29;13.58;63.42
69731;SHT31;56996;48.138;11.538;2023-08-08T04:37:55;13.63;63.40
69731;SHT31;56996;48.138;11.538;2023-08-08T04:40:22;13.64;63.41
69731;SHT31;56996;48.138;11.538;2023-08-08T04:42:49;13.64;63.56
69731;SHT31;56996;48.138;11.538;2023-08-08T04:45:17;13.68;63.48
69731;SHT31;56996;48.138;11.538;2023-08-08T04:47:44;13.69;63.56
69731;SHT31;56996;48.138;11.538;2023-08-08T04:50:11;13.73;63.53
69731;SHT31;56996;48.138;11.538;2023-08-08T04:52:38;13.77;63.52
69731;SHT31;56996;48.138;11.538;2023-08-08T04:55:05;13.80;63.49
69731;SHT31;56996;48.138;11.538;2023-08-08T04:57:32;13.83;63.46
69731;SHT31;56996;48.138;11.538;2023-08-08T04:59:59;13.84;63.65
69731;SHT31;56996;48.138;11.538;2023-08-08T05:02:30;13.85;63.66
69731;SHT31;56996;48.138;11.538;2023-08-08T05:04:58;13.90;63.65
69731;SHT31;56996;48.138;11.538;2023-08-08T05:07:25;13.94;63.70
69731;SHT31;56996;48.138;11.538;2023-08-08T05:09:53;13.97;63.78
69731;SHT31;56996;48.138;11.538;2023-08-08T05:12:20;14.02;63.72
69731;SHT31;56996;48.138;11.538;2023-08-08T05:14:46;14.08;63.62
69731;SHT31;56996;48.138;11.538;2023-08-08T05:17:13;14.10;63.61
69731;SHT31;56996;48.138;11.538;2023-08-08T05:19:40;14.16;63.67
69731;SHT31;56996;48.138;11.538;2023-08-08T05:22:06;14.21;63.53
69731;SHT31;56996;48.138;11.538;2023-08-08T05:24:33;14.25;63.41
69731;SHT31;56996;48.138;11.538;2023-08-08T05:27:00;14.33;63.17
69731;SHT31;56996;48.138;11.538;2023-08-08T05:29:27;14.39;63.02
69731;SHT31;56996;48.138;11.538;2023-08-08T05:31:54;14.46;62.84
69731;SHT31;56996;48.138;11.538;2023-08-08T05:34:21;14.55;62.79
69731;SHT31;56996;48.138;11.538;2023-08-08T05:36:50;14.63;62.59
69731;SHT31;56996;48.138;11.538;2023-08-08T05:39:35;14.77;62.35
69731;SHT31;56996;48.138;11.538;2023-08-08T05:42:02;14.91;61.96
69731;SHT31;56996;48.138;11.538;2023-08-08T05:44:29;15.06;61.67
69731;SHT31;56996;48.138;11.538;2023-08-08T05:46:56;15.21;61.37
69731;SHT31;56996;48.138;11.538;2023-08-08T05:49:23;15.42;61.09
69731;SHT31;56996;48.138;11.538;2023-08-08T05:51:50;15.65;60.69
69731;SHT31;56996;48.138;11.538;2023-08-08T05:54:16;15.83;60.14
69731;SHT31;56996;48.138;11.538;2023-08-08T05:56:43;15.95;59.87
69731;SHT31;56996;48.138;11.538;2023-08-08T05:59:10;16.02;59.98
69731;SHT31;56996;48.138;11.538;2023-08-08T06:01:36;16.12;59.87
69731;SHT31;56996;48.138;11.538;2023-08-08T06:04:03;16.49;59.39
69731;SHT31;56996;48.138;11.538;2023-08-08T06:06:30;17.46;57.39
69731;SHT31;56996;48.138;11.538;2023-08-08T06:08:57;18.83;54.85
69731;SHT31;56996;48.138;11.538;2023-08-08T06:11:24;19.78;52.58
69731;SHT31;56996;48.138;11.538;2023-08-08T06:13:50;20.35;51.02
69731;SHT31;56996;48.138;11.538;2023-08-08T06:16:17;20.83;50.46
69731;SHT31;56996;48.138;11.538;2023-08-08T06:18:45;21.08;49.70
69731;SHT31;56996;48.138;11.538;2023-08-08T06:21:12;21.61;48.54
69731;SHT31;56996;48.138;11.538;2023-08-08T06:23:38;22.19;47.57
69731;SHT31;56996;48.138;11.538;2023-08-08T06:26:05;22.67;46.63
69731;SHT31;56996;48.138;11.538;2023-08-08T06:28:33;23.33;45.45
69731;SHT31;56996;48.138;11.538;2023-08-08T06:31:00;23.99;44.19
69731;SHT31;56996;48.138;11.538;2023-08-08T06:33:28;24.53;43.42
69731;SHT31;56996;48.138;11.538;2023-08-08T06:35:56;25.07;42.23
69731;SHT31;56996;48.138;11.538;2023-08-08T06:38:22;25.56;41.30
69731;SHT31;56996;48.138;11.538;2023-08-08T06:40:49;25.73;40.70
69731;SHT31;56996;48.138;11.538;2023-08-08T06:43:16;25.52;40.64
69731;SHT31;56996;48.138;11.538;2023-08-08T06:45:43;25.19;40.17
69731;SHT31;56996;48.138;11.538;2023-08-08T06:48:10;24.98;40.70
69731;SHT31;56996;48.138;11.538;2023-08-08T06:50:37;25.33;40.33
69731;SHT31;56996;48.138;11.538;2023-08-08T06:53:03;25.91;39.43
69731;SHT31;56996;48.138;11.538;2023-08-08T06:55:31;26.16;38.36
69731;SHT31;56996;48.138;11.538;2023-08-08T06:57:58;26.26;38.50
69731;SHT31;56996;48.138;11.538;2023-08-08T07:00:25;26.58;37.91
69731;SHT31;56996;48.138;11.538;2023-08-08T07:02:53;27.01;37.13
69731;SHT31;56996;48.138;11.538;2023-08-08T07:05:20;27.03;36.94
69731;SHT31;56996;48.138;11.538;2023-08-08T07:07:52;27.24;36.45
69731;SHT31;56996;48.138;11.538;2023-08-08T07:10:19;27.94;35.82
69731;SHT31;56996;48.138;11.538;2023-08-08T07:12:45;28.66;34.76
69731;SHT31;56996;48.138;11.538;2023-08-08T07:15:12;28.99;34.09
69731;SHT31;56996;48.138;11.538;2023-08-08T07:17:39;29.41;33.38
69731;SHT31;56996;48.138;11.538;2023-08-08T07:20:07;29.67;32.89
69731;SHT31;56996;48.138;11.538;2023-08-08T07:22:34;29.70;32.28
69731;SHT31;56996;48.138;11.538;2023-08-08T07:25:04;29.22;32.54
69731;SHT31;56996;48.138;11.538;2023-08-08T07:27:32;28.35;32.97
69731;SHT31;56996;48.138;11.538;2023-08-08T07:29:59;27.41;34.03
69731;SHT31;56996;48.138;11.538;2023-08-08T07:32:27;26.50;34.17
69731;SHT31;56996;48.138;11.538;2023-08-08T07:34:56;25.53;35.32
69731;SHT31;56996;48.138;11.538;2023-08-08T07:37:23;24.75;36.20
69731;SHT31;56996;48.138;11.538;2023-08-08T07:39:50;24.27;37.01
69731;SHT31;56996;48.138;11.538;2023-08-08T07:42:18;23.87;37.58
69731;SHT31;56996;48.138;11.538;2023-08-08T07:44:44;23.53;38.05
69731;SHT31;56996;48.138;11.538;2023-08-08T07:47:11;23.17;38.86
69731;SHT31;56996;48.138;11.538;2023-08-08T07:49:40;23.00;39.09
69731;SHT31;56996;48.138;11.538;2023-08-08T07:52:07;22.85;39.44
69731;SHT31;56996;48.138;11.538;2023-08-08T07:54:34;22.79;39.56
69731;SHT31;56996;48.138;11.538;2023-08-08T07:57:01;22.99;39.41
69731;SHT31;56996;48.138;11.538;2023-08-08T07:59:28;24.09;37.28
69731;SHT31;56996;48.138;11.538;2023-08-08T08:01:54;25.30;36.17
69731;SHT31;56996;48.138;11.538;2023-08-08T08:04:21;26.44;34.96
69731;SHT31;56996;48.138;11.538;2023-08-08T08:06:48;27.52;33.73
69731;SHT31;56996;48.138;11.538;2023-08-08T08:09:14;28.36;32.52
69731;SHT31;56996;48.138;11.538;2023-08-08T08:11:41;29.34;31.50
69731;SHT31;56996;48.138;11.538;2023-08-08T08:14:08;30.21;30.37
69731;SHT31;56996;48.138;11.538;2023-08-08T08:16:35;30.87;29.91
69731;SHT31;56996;48.138;11.538;2023-08-08T08:19:02;31.73;28.88
69731;SHT31;56996;48.138;11.538;2023-08-08T08:21:28;32.31;27.93
69731;SHT31;56996;48.138;11.538;2023-08-08T08:23:56;32.79;27.86
69731;SHT31;56996;48.138;11.538;2023-08-08T08:26:23;33.21;25.26
69731;SHT31;56996;48.138;11.538;2023-08-08T08:28:49;32.59;26.37
69731;SHT31;56996;48.138;11.538;2023-08-08T08:31:16;33.08;26.48
69731;SHT31;56996;48.138;11.538;2023-08-08T08:33:43;33.79;26.18
69731;SHT31;56996;48.138;11.538;2023-08-08T08:36:09;34.31;25.42
69731;SHT31;56996;48.138;11.538;2023-08-08T08:38:38;34.83;25.33
69731;SHT31;56996;48.138;11.538;2023-08-08T08:41:05;35.45;24.64
69731;SHT31;56996;48.138;11.538;2023-08-08T08:43:32;35.43;24.47
69731;SHT31;56996;48.138;11.538;2023-08-08T08:46:00;35.41;23.86
69731;SHT31;56996;48.138;11.538;2023-08-08T08:48:30;35.35;23.95
69731;SHT31;56996;48.138;11.538;2023-08-08T08:50:57;35.54;23.44
69731;SHT31;56996;48.138;11.538;2023-08-08T08:53:25;35.47;23.06
69731;SHT31;56996;48.138;11.538;2023-08-08T08:55:52;35.56;23.51
69731;SHT31;56996;48.138;11.538;2023-08-08T08:58:21;36.18;23.17
69731;SHT31;56996;48.138;11.538;2023-08-08T09:00:48;36.61;22.46
69731;SHT31;56996;48.138;11.538;2023-08-08T09:03:16;36.80;22.41
69731;SHT31;56996;48.138;11.538;2023-08-08T09:05:43;37.02;21.70
69731;SHT31;56996;48.138;11.538;2023-08-08T09:08:11;36.62;21.90
69731;SHT31;56996;48.138;11.538;2023-08-08T09:10:41;36.72;21.80
69731;SHT31;56996;48.138;11.538;2023-08-08T09:13:08;36.94;21.77
69731;SHT31;56996;48.138;11.538;2023-08-08T09:15:35;37.07;21.49
69731;SHT31;56996;48.138;11.538;2023-08-08T09:18:02;36.89;21.20
69731;SHT31;56996;48.138;11.538;2023-08-08T09:20:29;36.62;21.15
69731;SHT31;56996;48.138;11.538;2023-08-08T09:22:57;36.88;20.66
69731;SHT31;56996;48.138;11.538;2023-08-08T09:25:23;36.89;20.79
69731;SHT31;56996;48.138;11.538;2023-08-08T09:27:52;37.14;20.79
69731;SHT31;56996;48.138;11.538;2023-08-08T09:30:19;37.24;20.36
69731;SHT31;56996;48.138;11.538;2023-08-08T09:32:47;36.90;20.65
69731;SHT31;56996;48.138;11.538;2023-08-08T09:35:14;37.22;20.25
69731;SHT31;56996;48.138;11.538;2023-08-08T09:37:42;37.29;20.10
69731;SHT31;56996;48.138;11.538;2023-08-08T09:40:08;37.02;19.98
69731;SHT31;56996;48.138;11.538;2023-08-08T09:42:39;36.51;20.44
69731;SHT31;56996;48.138;11.538;2023-08-08T09:45:08;35.74;20.81
69731;SHT31;56996;48.138;11.538;2023-08-08T09:47:36;35.59;20.73
69731;SHT31;56996;48.138;11.538;2023-08-08T09:50:04;35.16;20.95
69731;SHT31;56996;48.138;11.538;2023-08-08T09:52:35;34.85;21.39
69731;SHT31;56996;48.138;11.538;2023-08-08T09:55:05;34.52;21.45
69731;SHT31;56996;48.138;11.538;2023-08-08T09:57:34;33.49;21.58
69731;SHT31;56996;48.138;11.538;2023-08-08T10:00:01;32.71;22.30
69731;SHT31;56996;48.138;11.538;2023-08-08T10:02:32;32.10;22.63
69731;SHT31;56996;48.138;11.538;2023-08-08T10:04:59;31.73;23.14
69731;SHT31;56996;48.138;11.538;2023-08-08T10:07:27;31.25;23.61
69731;SHT31;56996;48.138;11.538;2023-08-08T10:09:54;30.75;24.18
69731;SHT31;56996;48.138;11.538;2023-08-08T10:12:20;30.63;24.44
69731;SHT31;56996;48.138;11.538;2023-08-08T10:14:50;30.28;24.79
69731;SHT31;56996;48.138;11.538;2023-08-08T10:17:17;29.99;25.25
69731;SHT31;56996;48.138;11.538;2023-08-08T10:19:54;29.77;25.68
69731;SHT31;56996;48.138;11.538;2023-08-08T10:22:22;29.42;25.63
69731;SHT31;56996;48.138;11.538;2023-08-08T10:24:51;29.11;25.63
69731;SHT31;56996;48.138;11.538;2023-08-08T10:27:31;28.94;25.81
69731;SHT31;56996;48.138;11.538;2023-08-08T10:30:08;28.84;25.71
69731;SHT31;56996;48.138;11.538;2023-08-08T10:32:44;28.70;25.60
69731;SHT31;56996;48.138;11.538;2023-08-08T10:35:15;28.31;25.72
69731;SHT31;56996;48.138;11.538;2023-08-08T10:37:51;27.99;26.24
69731;SHT31;56996;48.138;11.538;2023-08-08T10:40:20;27.82;26.41
69731;SHT31;56996;48.138;11.538;2023-08-08T10:42:47;27.48;26.52
69731;SHT31;56996;48.138;11.538;2023-08-08T10:45:14;27.15;26.84
69731;SHT31;56996;48.138;11.538;2023-08-08T10:47:43;27.10;27.07
69731;SHT31;56996;48.138;11.538;2023-08-08T10:50:12;27.21;27.31
69731;SHT31;56996;48.138;11.538;2023-08-08T10:55:19;27.23;27.07
69731;SHT31;56996;48.138;11.538;2023-08-08T11:00:37;27.06;27.44
69731;SHT31;56996;48.138;11.538;2023-08-08T11:03:07;27.00;27.46
69731;SHT31;56996;48.138;11.538;2023-08-08T11:05:36;26.83;27.62
69731;SHT31;56996;48.138;11.538;2023-08-08T11:08:05;26.75;27.46
69731;SHT31;56996;48.138;11.538;2023-08-08T11:10:38;26.73;27.75
69731;SHT31;56996;48.138;11.538;2023-08-08T11:13:06;26.77;27.52
69731;SHT31;56996;48.138;11.538;2023-08-08T11:15:35;26.83;27.43
69731;SHT31;56996;48.138;11.538;2023-08-08T11:18:08;26.97;27.57
69731;SHT31;56996;48.138;11.538;2023-08-08T11:20:36;27.19;27.36
69731;SHT31;56996;48.138;11.538;2023-08-08T11:23:03;27.10;27.32
69731;SHT31;56996;48.138;11.538;2023-08-08T11:25:32;27.13;27.30
69731;SHT31;56996;48.138;11.538;2023-08-08T11:27:59;27.32;27.22
69731;SHT31;56996;48.138;11.538;2023-08-08T11:30:29;27.30;26.83
69731;SHT31;56996;48.138;11.538;2023-08-08T11:32:59;27.17;26.72
69731;SHT31;56996;48.138;11.538;2023-08-08T11:35:30;26.99;27.02
69731;SHT31;56996;48.138;11.538;2023-08-08T11:37:57;26.78;27.28
69731;SHT31;56996;48.138;11.538;2023-08-08T11:40:26;26.75;27.22
69731;SHT31;56996;48.138;11.538;2023-08-08T11:42:56;26.69;27.02
69731;SHT31;56996;48.138;11.538;2023-08-08T11:45:24;26.59;27.02
69731;SHT31;56996;48.138;11.538;2023-08-08T11:47:52;26.54;27.07
69731;SHT31;56996;48.138;11.538;2023-08-08T11:50:21;26.49;26.89
69731;SHT31;56996;48.138;11.538;2023-08-08T11:52:50;26.39;26.50
69731;SHT31;56996;48.138;11.538;2023-08-08T11:55:19;26.30;26.58
69731;SHT31;56996;48.138;11.538;2023-08-08T11:57:49;26.20;26.84
69731;SHT31;56996;48.138;11.538;2023-08-08T12:00:16;26.20;27.05
69731;SHT31;56996;48.138;11.538;2023-08-08T12:02:44;26.27;27.01
69731;SHT31;56996;48.138;11.538;2023-08-08T12:05:13;26.18;26.98
69731;SHT31;56996;48.138;11.538;2023-08-08T12:07:43;26.05;26.16
69731;SHT31;56996;48.138;11.538;2023-08-08T12:10:13;25.86;26.35
69731;SHT31;56996;48.138;11.538;2023-08-08T12:12:46;25.84;26.79
69731;SHT31;56996;48.138;11.538;2023-08-08T12:15:20;25.78;26.96
69731;SHT31;56996;48.138;11.538;2023-08-08T12:17:47;25.88;26.63
69731;SHT31;56996;48.138;11.538;2023-08-08T12:20:14;25.78;26.80
69731;SHT31;56996;48.138;11.538;2023-08-08T12:22:41;25.60;27.04
69731;SHT31;56996;48.138;11.538;2023-08-08T12:25:08;25.49;27.33
69731;SHT31;56996;48.138;11.538;2023-08-08T12:27:34;25.41;27.50
69731;SHT31;56996;48.138;11.538;2023-08-08T12:30:01;25.34;27.61
69731;SHT31;56996;48.138;11.538;2023-08-08T12:32:28;25.32;27.96
69731;SHT31;56996;48.138;11.538;2023-08-08T12:34:58;25.34;28.12
69731;SHT31;56996;48.138;11.538;2023-08-08T12:37:24;25.44;27.48
69731;SHT31;56996;48.138;11.538;2023-08-08T12:39:51;25.64;27.24
69731;SHT31;56996;48.138;11.538;2023-08-08T12:42:18;25.77;26.86
69731;SHT31;56996;48.138;11.538;2023-08-08T12:44:45;25.95;26.64
69731;SHT31;56996;48.138;11.538;2023-08-08T12:47:13;26.07;26.70
69731;SHT31;56996;48.138;11.538;2023-08-08T12:49:41;26.15;27.14
69731;SHT31;56996;48.138;11.538;2023-08-08T12:52:08;26.17;26.64
69731;SHT31;56996;48.138;11.538;2023-08-08T12:54:35;26.10;26.83
69731;SHT31;56996;48.138;11.538;2023-08-08T12:57:03;25.87;27.29
69731;SHT31;56996;48.138;11.538;2023-08-08T12:59:30;25.69;27.34
69731;SHT31;56996;48.138;11.538;2023-08-08T13:01:57;25.63;27.41
69731;SHT31;56996;48.138;11.538;2023-08-08T13:04:25;25.81;27.45
69731;SHT31;56996;48.138;11.538;2023-08-08T13:06:51;25.93;27.34
69731;SHT31;56996;48.138;11.538;2023-08-08T13:09:18;25.96;27.09
69731;SHT31;56996;48.138;11.538;2023-08-08T13:11:46;25.93;27.10
69731;SHT31;56996;48.138;11.538;2023-08-08T13:14:12;26.08;27.08
69731;SHT31;56996;48.138;11.538;2023-08-08T13:16:39;26.15;27.03
69731;SHT31;56996;48.138;11.538;2023-08-08T13:19:06;26.10;27.09
69731;SHT31;56996;48.138;11.538;2023-08-08T13:21:33;25.89;26.68
69731;SHT31;56996;48.138;11.538;2023-08-08T13:24:00;25.76;26.70
69731;SHT31;56996;48.138;11.538;2023-08-08T13:26:27;25.80;26.88
69731;SHT31;56996;48.138;11.538;2023-08-08T13:28:54;25.80;27.07
69731;SHT31;56996;48.138;11.538;2023-08-08T13:31:20;25.84;27.04
69731;SHT31;56996;48.138;11.538;2023-08-08T13:33:47;25.78;27.00
69731;SHT31;56996;48.138;11.538;2023-08-08T13:36:14;25.83;27.04
69731;SHT31;56996;48.138;11.538;2023-08-08T13:38:40;25.93;26.87
69731;SHT31;56996;48.138;11.538;2023-08-08T13:41:07;25.91;27.06
69731;SHT31;56996;48.138;11.538;2023-08-08T13:43:34;25.81;27.12
69731;SHT31;56996;48.138;11.538;2023-08-08T13:46:01;25.73;27.45
69731;SHT31;56996;48.138;11.538;2023-08-08T13:48:30;25.78;27.18
69731;SHT31;56996;48.138;11.538;2023-08-08T13:50:56;25.85;27.39
69731;SHT31;56996;48.138;11.538;2023-08-08T13:53:23;25.74;27.69
69731;SHT31;56996;48.138;11.538;2023-08-08T13:55:50;25.69;27.57
69731;SHT31;56996;48.138;11.538;2023-08-08T13:58:16;25.69;27.84
69731;SHT31;56996;48.138;11.538;2023-08-08T14:00:43;25.67;27.29
69731;SHT31;56996;48.138;11.538;2023-08-08T14:03:10;25.61;27.29
69731;SHT31;56996;48.138;11.538;2023-08-08T14:05:38;25.50;27.51
69731;SHT31;56996;48.138;11.538;2023-08-08T14:08:05;25.54;27.74
69731;SHT31;56996;48.138;11.538;2023-08-08T14:10:32;25.53;27.96
69731;SHT31;56996;48.138;11.538;2023-08-08T14:12:58;25.44;27.96
69731;SHT31;56996;48.138;11.538;2023-08-08T14:15:25;25.20;28.17
69731;SHT31;56996;48.138;11.538;2023-08-08T14:18:05;25.04;28.50
69731;SHT31;56996;48.138;11.538;2023-08-08T14:20:32;25.11;28.71
69731;SHT31;56996;48.138;11.538;2023-08-08T14:22:59;24.97;28.62
69731;SHT31;56996;48.138;11.538;2023-08-08T14:25:26;24.83;29.06
69731;SHT31;56996;48.138;11.538;2023-08-08T14:27:53;24.84;29.21
69731;SHT31;56996;48.138;11.538;2023-08-08T14:30:19;24.80;29.33
69731;SHT31;56996;48.138;11.538;2023-08-08T14:32:47;24.84;29.52
69731;SHT31;56996;48.138;11.538;2023-08-08T14:35:14;24.95;29.73
69731;SHT31;56996;48.138;11.538;2023-08-08T14:37:41;25.02;29.55
69731;SHT31;56996;48.138;11.538;2023-08-08T14:40:08;25.07;29.86
69731;SHT31;56996;48.138;11.538;2023-08-08T14:42:35;25.22;29.72
69731;SHT31;56996;48.138;11.538;2023-08-08T14:45:02;25.20;29.51
69731;SHT31;56996;48.138;11.538;2023-08-08T14:47:29;25.02;29.79
69731;SHT31;56996;48.138;11.538;2023-08-08T14:49:56;25.06;30.01
69731;SHT31;56996;48.138;11.538;2023-08-08T14:52:23;25.08;29.76
69731;SHT31;56996;48.138;11.538;2023-08-08T14:54:52;25.09;29.76
69731;SHT31;56996;48.138;11.538;2023-08-08T14:57:19;25.07;29.70
69731;SHT31;56996;48.138;11.538;2023-08-08T14:59:46;25.02;29.75
69731;SHT31;56996;48.138;11.538;2023-08-08T15:02:13;25.00;29.78
69731;SHT31;56996;48.138;11.538;2023-08-08T15:04:40;24.99;29.90
69731;SHT31;56996;48.138;11.538;2023-08-08T15:07:07;24.88;30.15
69731;SHT31;56996;48.138;11.538;2023-08-08T15:09:33;24.75;30.05
69731;SHT31;56996;48.138;11.538;2023-08-08T15:12:00;24.72;29.95
69731;SHT31;56996;48.138;11.538;2023-08-08T15:14:27;24.80;30.09
69731;SHT31;56996;48.138;11.538;2023-08-08T15:16:54;24.86;30.10
69731;SHT31;56996;48.138;11.538;2023-08-08T15:19:20;24.91;30.29
69731;SHT31;56996;48.138;11.538;2023-08-08T15:21:47;24.97;30.26
69731;SHT31;56996;48.138;11.538;2023-08-08T15:24:14;24.94;30.40
69731;SHT31;56996;48.138;11.538;2023-08-08T15:26:41;24.85;30.51